Time;durP1;ratioP1;P1;durP2;ratioP2;P2;SDS_P1;SDS_P2;PMS_P1;PMS_P2;Temp;Humidity;BMP_temperature;BMP_pressure;BME280_temperature;BME280_humidity;BME280_pressure;Samples;Min_cycle;Max_cycle;Signal;HPM_P1;HPM_P2
2021/08/01 00:01:21;;;;;;;18.23;13.03;;;16.30;95.90;;;;;;5113194;28;20055;-66
2021/08/01 00:03:50;;;;;;;14.90;12.57;;;16.30;96.00;;;;;;5112861;28;20104;-66
2021/08/01 00:06:17;;;;;;;15.70;14.03;;;16.30;96.00;;;;;;5113340;28;20043;-67
2021/08/01 00:08:42;;;;;;;17.33;14.30;;;16.20;96.00;;;;;;5113549;28;20040;-66
2021/08/01 00:11:09;;;;;;;16.47;13.77;;;16.20;96.10;;;;;;5112644;28;20047;-66
2021/08/01 00:13:35;;;;;;;17.27;13.47;;;16.20;96.10;;;;;;5113319;28;20389;-66
2021/08/01 00:16:01;;;;;;;18.50;15.00;;;16.20;96.20;;;;;;5113253;28;20081;-66
2021/08/01 00:18:27;;;;;;;16.47;13.57;;;16.10;96.20;;;;;;5112706;28;20392;-66
2021/08/01 00:20:53;;;;;;;16.70;14.83;;;16.10;96.30;;;;;;5113271;28;20555;-66
2021/08/01 00:23:18;;;;;;;15.73;14.07;;;16.10;96.20;;;;;;5112100;28;20209;-66
2021/08/01 00:25:44;;;;;;;16.47;12.73;;;16.10;96.30;;;;;;5113135;28;20412;-66
2021/08/01 00:28:10;;;;;;;18.27;13.47;;;16.10;96.30;;;;;;5112926;28;20047;-66
2021/08/01 00:30:36;;;;;;;18.03;14.33;;;16.10;96.40;;;;;;5112351;28;20047;-66
2021/08/01 00:33:01;;;;;;;21.80;14.87;;;16.00;96.40;;;;;;5112991;28;20077;-66
2021/08/01 00:35:28;;;;;;;18.70;14.60;;;16.00;96.40;;;;;;5113282;28;20043;-66
2021/08/01 00:37:53;;;;;;;16.97;14.13;;;16.00;96.50;;;;;;5112330;28;20044;-66
2021/08/01 00:40:20;;;;;;;18.13;14.23;;;16.00;96.50;;;;;;5112757;28;20054;-66
2021/08/01 00:42:46;;;;;;;18.63;13.90;;;15.90;96.60;;;;;;5112810;28;20062;-66
2021/08/01 00:45:12;;;;;;;19.23;15.20;;;15.90;96.60;;;;;;5112131;28;20126;-66
2021/08/01 00:47:41;;;;;;;16.23;14.17;;;15.90;96.70;;;;;;5113085;28;20074;-66
2021/08/01 00:50:08;;;;;;;19.23;14.53;;;15.90;96.70;;;;;;5112524;28;20510;-66
2021/08/01 00:52:37;;;;;;;16.03;13.93;;;15.90;96.70;;;;;;5112313;28;20048;-66
2021/08/01 00:55:05;;;;;;;19.63;15.03;;;15.90;96.70;;;;;;5112615;28;20055;-66
2021/08/01 00:57:30;;;;;;;19.33;15.03;;;15.90;96.70;;;;;;5112767;28;20043;-66
2021/08/01 00:59:56;;;;;;;19.67;14.60;;;15.90;96.80;;;;;;5112057;28;20047;-66
2021/08/01 01:02:36;;;;;;;20.90;15.77;;;15.90;96.80;;;;;;5112592;28;20048;-66
2021/08/01 01:05:10;;;;;;;15.53;13.33;;;15.90;96.80;;;;;;5112664;28;20051;-66
2021/08/01 01:07:58;;;;;;;16.77;13.70;;;15.90;96.80;;;;;;5111837;28;20484;-65
2021/08/01 01:10:47;;;;;;;19.07;13.57;;;15.90;96.80;;;;;;5112600;28;20103;-65
2021/08/01 01:13:17;;;;;;;16.47;13.17;;;15.80;96.80;;;;;;5111834;28;20051;-65
2021/08/01 01:15:47;;;;;;;19.40;13.13;;;15.80;96.80;;;;;;5112727;28;20492;-65
2021/08/01 01:18:17;;;;;;;17.77;13.75;;;15.80;96.80;;;;;;5112425;28;20048;-66
2021/08/01 01:21:16;;;;;;;17.50;12.70;;;15.80;96.80;;;;;;5112127;28;20043;-65
2021/08/01 01:23:44;;;;;;;14.97;12.97;;;15.90;96.80;;;;;;5112512;28;20043;-66
2021/08/01 01:26:15;;;;;;;17.03;13.03;;;15.90;96.80;;;;;;5112502;28;20039;-65
2021/08/01 01:29:06;;;;;;;15.25;13.50;;;15.80;96.80;;;;;;5111700;28;20101;-66
2021/08/01 01:31:37;;;;;;;18.80;13.37;;;15.80;96.70;;;;;;5112746;28;20052;-65
2021/08/01 01:34:06;;;;;;;;;;;15.80;96.70;;;;;;5112029;28;20044;-65
2021/08/01 01:36:34;;;;;;;15.87;13.67;;;15.80;96.70;;;;;;5112564;28;20006;-65
2021/08/01 01:39:03;;;;;;;20.10;14.00;;;15.70;96.70;;;;;;5112112;28;20181;-65
2021/08/01 01:41:30;;;;;;;16.10;14.37;;;15.70;96.80;;;;;;5111911;28;20044;-66
2021/08/01 01:43:55;;;;;;;19.10;15.43;;;15.70;96.90;;;;;;5112426;28;20052;-65
2021/08/01 01:46:24;;;;;;;16.57;14.87;;;15.70;96.90;;;;;;5112239;28;20039;-66
2021/08/01 01:48:51;;;;;;;18.20;15.33;;;15.70;97.00;;;;;;5111726;28;20087;-66
2021/08/01 01:51:18;;;;;;;19.67;14.77;;;15.70;97.00;;;;;;5112159;28;20093;-66
2021/08/01 01:53:44;;;;;;;26.43;15.87;;;15.70;97.00;;;;;;5112247;28;20101;-65
2021/08/01 01:56:12;;;;;;;18.37;14.73;;;15.70;97.10;;;;;;5111323;28;20052;-66
2021/08/01 01:58:39;;;;;;;18.13;14.83;;;15.70;97.10;;;;;;5112398;28;20067;-66
2021/08/01 02:01:04;;;;;;;18.30;16.30;;;15.70;97.10;;;;;;5111712;28;20058;-65
2021/08/01 02:03:30;;;;;;;18.20;15.20;;;15.60;97.10;;;;;;5111098;28;20056;-65
2021/08/01 02:05:56;;;;;;;19.13;16.57;;;15.70;97.20;;;;;;5114498;28;20044;-65
2021/08/01 02:08:22;;;;;;;18.20;15.97;;;15.60;97.20;;;;;;5115565;28;20048;-65
2021/08/01 02:10:58;;;;;;;17.87;14.37;;;15.60;97.20;;;;;;5115198;28;20126;-66
2021/08/01 02:13:33;;;;;;;20.53;15.87;;;15.60;97.30;;;;;;5115692;28;20108;-66
2021/08/01 02:16:00;;;;;;;21.93;16.87;;;15.60;97.30;;;;;;5114933;28;20047;-65
2021/08/01 02:18:35;;;;;;;19.77;15.87;;;15.60;97.30;;;;;;5115701;28;20054;-65
2021/08/01 02:21:02;;;;;;;20.30;15.63;;;15.50;97.40;;;;;;5115661;28;20067;-65
2021/08/01 02:23:37;;;;;;;21.20;15.90;;;15.50;97.40;;;;;;5114824;28;20134;-66
2021/08/01 02:26:03;;;;;;;19.80;15.80;;;15.50;97.40;;;;;;5115410;28;20403;-65
2021/08/01 02:28:31;;;;;;;18.40;15.40;;;15.50;97.40;;;;;;5115972;28;20051;-65
2021/08/01 02:30:58;;;;;;;18.13;16.20;;;15.50;97.50;;;;;;5114643;28;20534;-65
2021/08/01 02:33:28;;;;;;;19.03;15.57;;;15.50;97.50;;;;;;5115248;28;20122;-65
2021/08/01 02:36:00;;;;;;;19.83;16.30;;;15.50;97.50;;;;;;5115625;28;20051;-65
2021/08/01 02:38:29;;;;;;;24.10;16.73;;;15.50;97.60;;;;;;5114585;28;20582;-65
2021/08/01 02:41:01;;;;;;;22.43;16.03;;;15.50;97.60;;;;;;5115243;28;20399;-65
2021/08/01 02:43:31;;;;;;;21.27;16.90;;;15.50;97.60;;;;;;5115247;28;20047;-65
2021/08/01 02:45:57;;;;;;;18.80;16.70;;;15.50;97.60;;;;;;5114624;28;20052;-65
2021/08/01 02:48:25;;;;;;;21.10;16.73;;;15.40;97.60;;;;;;5115103;28;20047;-65
2021/08/01 02:51:01;;;;;;;23.57;16.67;;;15.50;97.70;;;;;;5115060;28;20070;-65
2021/08/01 02:53:29;;;;;;;19.53;16.73;;;15.50;97.70;;;;;;5115014;28;20415;-65
2021/08/01 02:55:57;;;;;;;21.23;17.50;;;15.50;97.70;;;;;;5114991;28;20055;-65
2021/08/01 02:58:26;;;;;;;22.13;17.10;;;15.40;97.70;;;;;;5114386;28;20062;-65
2021/08/01 03:00:53;;;;;;;20.50;15.73;;;15.50;97.80;;;;;;5114945;28;20043;-65
2021/08/01 03:03:20;;;;;;;20.87;16.83;;;15.50;97.80;;;;;;5114685;28;20063;-65
2021/08/01 03:05:47;;;;;;;21.17;16.27;;;15.50;97.80;;;;;;5114184;28;20118;-65
2021/08/01 03:08:15;;;;;;;22.13;16.47;;;15.50;97.80;;;;;;5114424;28;20074;-65
2021/08/01 03:10:48;;;;;;;20.43;17.03;;;15.50;97.80;;;;;;5114709;28;20487;-65
2021/08/01 03:13:14;;;;;;;18.40;16.47;;;15.50;97.80;;;;;;5113882;28;20043;-65
2021/08/01 03:15:42;;;;;;;20.33;16.13;;;15.50;97.80;;;;;;5114580;28;20051;-65
2021/08/01 03:18:08;;;;;;;25.50;16.87;;;15.50;97.90;;;;;;5113491;28;20048;-65
2021/08/01 03:20:34;;;;;;;19.43;16.20;;;15.50;97.90;;;;;;5113659;28;20039;-65
2021/08/01 03:23:00;;;;;;;19.73;16.53;;;15.50;97.80;;;;;;5114183;28;20408;-65
2021/08/01 03:25:26;;;;;;;20.27;16.10;;;15.50;97.80;;;;;;5114127;28;20062;-65
2021/08/01 03:27:51;;;;;;;18.77;16.20;;;15.50;97.80;;;;;;5113633;28;20073;-65
2021/08/01 03:30:17;;;;;;;21.77;15.80;;;15.50;97.90;;;;;;5114235;28;20039;-65
2021/08/01 03:32:43;;;;;;;21.20;15.57;;;15.50;97.90;;;;;;5114176;28;20096;-65
2021/08/01 03:35:09;;;;;;;18.70;15.33;;;15.50;98.00;;;;;;5113133;28;20057;-65
2021/08/01 03:37:35;;;;;;;23.33;16.23;;;15.40;98.00;;;;;;5114053;28;20059;-65
2021/08/01 03:40:06;;;;;;;20.53;16.30;;;15.40;98.00;;;;;;5113752;28;20047;-65
2021/08/01 03:42:32;;;;;;;17.83;15.37;;;15.40;98.10;;;;;;5114158;28;20047;-65
2021/08/01 03:44:58;;;;;;;19.37;15.97;;;15.40;98.10;;;;;;5114102;28;20419;-65
2021/08/01 03:47:23;;;;;;;21.30;15.73;;;15.40;98.10;;;;;;5112990;28;20055;-65
2021/08/01 03:49:49;;;;;;;27.97;16.50;;;15.40;98.10;;;;;;5114064;28;20463;-65
2021/08/01 03:52:14;;;;;;;23.57;15.90;;;15.40;98.10;;;;;;5113423;28;20052;-65
2021/08/01 03:54:41;;;;;;;22.47;15.50;;;15.40;98.10;;;;;;5113049;28;20050;-66
2021/08/01 03:57:07;;;;;;;22.23;16.40;;;15.40;98.10;;;;;;5113760;28;20043;-65
2021/08/01 03:59:35;;;;;;;18.53;15.37;;;15.40;98.20;;;;;;5113885;28;20407;-65
2021/08/01 04:02:01;;;;;;;20.90;16.23;;;15.40;98.10;;;;;;5112779;28;20047;-65
2021/08/01 04:04:27;;;;;;;24.00;17.70;;;15.40;98.20;;;;;;5113601;28;20052;-65
2021/08/01 04:06:53;;;;;;;23.53;16.93;;;15.40;98.20;;;;;;5113453;28;20376;-65
2021/08/01 04:09:18;;;;;;;22.07;16.93;;;15.30;98.20;;;;;;5112707;28;20047;-65
2021/08/01 04:11:44;;;;;;;21.83;17.40;;;15.30;98.20;;;;;;5113688;28;20056;-65
2021/08/01 04:14:11;;;;;;;24.80;18.93;;;15.30;98.20;;;;;;5113168;28;20146;-65
2021/08/01 04:16:37;;;;;;;24.47;18.27;;;15.30;98.30;;;;;;5112790;28;20044;-65
2021/08/01 04:19:10;;;;;;;28.90;18.73;;;15.30;98.30;;;;;;5113225;28;20476;-65
2021/08/01 04:21:37;;;;;;;30.27;18.27;;;15.30;98.40;;;;;;5113382;28;20404;-65
2021/08/01 04:24:03;;;;;;;29.83;19.23;;;15.30;98.40;;;;;;5111868;28;20492;-65
2021/08/01 04:26:29;;;;;;;26.07;19.40;;;15.30;98.40;;;;;;5113461;28;20443;-65
2021/08/01 04:28:55;;;;;;;29.47;21.43;;;15.20;98.50;;;;;;5113002;28;20047;-65
2021/08/01 04:31:20;;;;;;;34.23;22.37;;;15.20;98.50;;;;;;5112251;28;20047;-65
2021/08/01 04:33:46;;;;;;;35.63;23.37;;;15.20;98.60;;;;;;5113042;28;20047;-65
2021/08/01 04:36:12;;;;;;;33.73;24.03;;;15.20;98.60;;;;;;5112664;28;20042;-65
2021/08/01 04:38:38;;;;;;;33.83;23.97;;;15.20;98.60;;;;;;5112780;28;20055;-65
2021/08/01 04:41:04;;;;;;;34.27;24.60;;;15.20;98.70;;;;;;5113095;28;20047;-65
2021/08/01 04:43:29;;;;;;;36.73;25.53;;;15.20;98.70;;;;;;5112250;28;20048;-65
2021/08/01 04:45:55;;;;;;;47.50;27.87;;;15.20;98.70;;;;;;5112968;28;20410;-65
2021/08/01 04:48:20;;;;;;;45.47;29.23;;;15.30;98.80;;;;;;5112616;28;20059;-65
2021/08/01 04:50:46;;;;;;;42.80;28.47;;;15.20;98.80;;;;;;5112162;28;20693;-65
2021/08/01 04:53:12;;;;;;;46.23;27.87;;;15.20;98.80;;;;;;5112799;28;20048;-65
2021/08/01 04:55:39;;;;;;;43.47;29.27;;;15.30;98.90;;;;;;5113275;28;20051;-65
2021/08/01 04:58:05;;;;;;;45.37;30.93;;;15.30;99.00;;;;;;5111643;28;20051;-65
2021/08/01 05:00:34;;;;;;;45.53;30.93;;;15.30;99.00;;;;;;5112737;28;20052;-65
2021/08/01 05:03:00;;;;;;;43.33;29.57;;;15.30;99.10;;;;;;5112293;28;20454;-65
2021/08/01 05:05:26;;;;;;;44.37;29.30;;;15.40;99.10;;;;;;5112029;28;20121;-65
2021/08/01 05:07:53;;;;;;;50.00;32.20;;;15.40;99.10;;;;;;5112703;28;20511;-65
2021/08/01 05:10:21;;;;;;;55.33;32.80;;;15.40;99.10;;;;;;5112613;28;20079;-65
2021/08/01 05:12:47;;;;;;;47.73;32.63;;;15.50;99.20;;;;;;5111914;28;20075;-66
2021/08/01 05:15:13;;;;;;;46.60;31.83;;;15.50;99.20;;;;;;5112328;28;20070;-66
2021/08/01 05:17:38;;;;;;;50.17;34.10;;;15.50;99.10;;;;;;5112566;28;20047;-66
2021/08/01 05:20:05;;;;;;;46.50;32.10;;;15.60;99.20;;;;;;5111515;28;20526;-66
2021/08/01 05:22:33;;;;;;;48.33;33.53;;;15.60;99.20;;;;;;5112621;28;20051;-66
2021/08/01 05:24:59;;;;;;;51.63;33.60;;;15.60;99.10;;;;;;5112425;28;20564;-66
2021/08/01 05:27:24;;;;;;;51.53;33.77;;;15.60;99.20;;;;;;5111849;28;20071;-66
2021/08/01 05:29:50;;;;;;;51.80;32.97;;;15.60;99.10;;;;;;5112534;28;20078;-66
2021/08/01 05:32:16;;;;;;;48.90;32.53;;;15.70;99.10;;;;;;5112191;28;20047;-66
2021/08/01 05:34:41;;;;;;;45.43;31.53;;;15.70;99.10;;;;;;5111632;28;20044;-66
2021/08/01 05:37:07;;;;;;;46.63;30.67;;;15.70;99.10;;;;;;5112340;28;20067;-66
2021/08/01 05:39:34;;;;;;;48.20;31.20;;;15.70;99.10;;;;;;5113083;28;20063;-66
2021/08/01 05:42:00;;;;;;;42.17;30.60;;;15.80;99.10;;;;;;5115493;28;20051;-66
2021/08/01 05:44:26;;;;;;;47.50;33.30;;;15.80;99.10;;;;;;5116315;28;20403;-66
2021/08/01 05:46:52;;;;;;;44.57;31.83;;;15.80;99.00;;;;;;5115401;28;20070;-66
2021/08/01 05:49:17;;;;;;;44.37;32.20;;;15.90;99.10;;;;;;5115790;28;20047;-66
2021/08/01 05:51:43;;;;;;;47.83;32.23;;;15.90;99.00;;;;;;5116201;28;20039;-66
2021/08/01 05:54:09;;;;;;;49.40;34.30;;;15.90;99.00;;;;;;5115139;28;20047;-66
2021/08/01 05:56:34;;;;;;;45.20;32.03;;;16.00;99.10;;;;;;5116286;28;20541;-66
2021/08/01 05:59:00;;;;;;;49.43;33.37;;;16.10;99.00;;;;;;5115883;28;20074;-66
2021/08/01 06:01:26;;;;;;;45.47;32.43;;;16.10;99.00;;;;;;5115223;28;20502;-66
2021/08/01 06:03:51;;;;;;;44.57;31.00;;;16.20;99.00;;;;;;5115843;28;20048;-66
2021/08/01 06:06:19;;;;;;;42.50;30.13;;;16.20;98.90;;;;;;5115837;28;20075;-66
2021/08/01 06:08:46;;;;;;;42.03;30.03;;;16.30;98.80;;;;;;5115220;28;20055;-66
2021/08/01 06:11:15;;;;;;;42.33;30.50;;;16.30;98.80;;;;;;5115682;28;20126;-66
2021/08/01 06:13:41;;;;;;;37.00;26.93;;;16.40;98.80;;;;;;5115796;28;20043;-66
2021/08/01 06:16:08;;;;;;;37.20;25.90;;;16.40;98.60;;;;;;5114659;27;20122;-66
2021/08/01 06:18:35;;;;;;;33.10;25.80;;;16.40;98.40;;;;;;5115701;28;20484;-66
2021/08/01 06:21:18;;;;;;;33.40;24.93;;;16.50;98.30;;;;;;5115564;28;20048;-66
2021/08/01 06:23:51;;;;;;;32.83;25.27;;;16.50;98.20;;;;;;5114782;28;20047;-66
2021/08/01 06:26:19;;;;;;;30.70;24.43;;;16.50;98.10;;;;;;5115271;28;20043;-66
2021/08/01 06:28:45;;;;;;;32.90;24.83;;;16.50;98.00;;;;;;5115519;28;20051;-66
2021/08/01 06:31:11;;;;;;;31.33;24.40;;;16.50;98.00;;;;;;5114631;28;20377;-66
2021/08/01 06:33:40;;;;;;;29.97;23.73;;;16.60;98.00;;;;;;5115493;28;20048;-66
2021/08/01 06:36:08;;;;;;;30.00;24.70;;;16.60;97.90;;;;;;5114381;28;20188;-66
2021/08/01 06:38:33;;;;;;;29.90;23.27;;;16.60;97.90;;;;;;5115275;28;20047;-66
2021/08/01 06:40:59;;;;;;;31.37;25.97;;;16.60;97.80;;;;;;5115063;28;20127;-67
2021/08/01 06:43:25;;;;;;;33.93;25.60;;;16.60;97.80;;;;;;5114308;28;20176;-66
2021/08/01 06:45:51;;;;;;;30.87;25.07;;;16.70;97.90;;;;;;5115391;28;20085;-66
2021/08/01 06:48:16;;;;;;;28.17;23.33;;;16.70;97.90;;;;;;5114959;28;20052;-66
2021/08/01 06:50:42;;;;;;;27.07;22.77;;;16.70;97.90;;;;;;5114170;28;20408;-66
2021/08/01 06:53:08;;;;;;;24.87;21.27;;;16.70;97.80;;;;;;5114036;28;20488;-66
2021/08/01 06:55:33;;;;;;;24.93;21.47;;;16.80;97.70;;;;;;5114700;28;20491;-66
2021/08/01 06:57:59;;;;;;;21.97;19.00;;;16.80;97.70;;;;;;5113512;28;20055;-65
2021/08/01 07:00:24;;;;;;;20.07;17.97;;;16.80;97.60;;;;;;5114783;28;20047;-65
2021/08/01 07:03:01;;;;;;;21.10;17.27;;;16.80;97.50;;;;;;5114793;28;20044;-66
2021/08/01 07:05:29;;;;;;;17.53;15.53;;;16.80;97.20;;;;;;5114003;28;20044;-65
2021/08/01 07:07:55;;;;;;;16.63;14.73;;;16.90;97.20;;;;;;5114747;28;20043;-65
2021/08/01 07:10:22;;;;;;;17.80;16.00;;;16.80;97.10;;;;;;5114106;28;20043;-66
2021/08/01 07:12:49;;;;;;;15.70;13.73;;;16.80;97.10;;;;;;5114051;28;20051;-66
2021/08/01 07:15:23;;;;;;;16.57;14.33;;;16.90;97.30;;;;;;5114060;28;20062;-66
2021/08/01 07:17:49;;;;;;;17.23;14.40;;;16.90;97.30;;;;;;5114583;28;20051;-66
2021/08/01 07:20:15;;;;;;;18.07;15.53;;;16.90;97.30;;;;;;5112796;28;20495;-66
2021/08/01 07:22:41;;;;;;;15.23;13.53;;;16.90;97.40;;;;;;5114187;28;20043;-66
2021/08/01 07:25:08;;;;;;;14.63;13.10;;;16.90;97.50;;;;;;5113341;28;20055;-66
2021/08/01 07:27:34;;;;;;;15.97;13.20;;;16.90;97.50;;;;;;5113840;28;20150;-66
2021/08/01 07:29:59;;;;;;;13.03;11.10;;;16.90;97.60;;;;;;5113687;28;20542;-66
2021/08/01 07:32:25;;;;;;;14.87;12.27;;;16.90;97.70;;;;;;5113718;28;20048;-67
2021/08/01 07:34:51;;;;;;;14.93;13.33;;;16.80;98.10;;;;;;5113883;28;20047;-67
2021/08/01 07:37:17;;;;;;;15.30;12.77;;;16.80;97.90;;;;;;5113762;28;20059;-67
2021/08/01 07:39:44;;;;;;;13.77;12.27;;;16.80;97.90;;;;;;5113224;28;20079;-67
2021/08/01 07:42:10;;;;;;;9.93;8.83;;;16.80;98.00;;;;;;5113821;28;20043;-67
2021/08/01 07:44:49;;;;;;;9.57;8.60;;;16.80;97.80;;;;;;5114036;28;20047;-67
2021/08/01 07:47:17;;;;;;;11.90;9.97;;;16.70;97.70;;;;;;5112586;28;20176;-66
2021/08/01 07:49:44;;;;;;;8.93;8.03;;;16.70;97.80;;;;;;5113728;28;20452;-66
2021/08/01 07:52:09;;;;;;;10.07;9.03;;;16.70;97.80;;;;;;5113322;28;20047;-65
2021/08/01 07:54:38;;;;;;;9.90;8.90;;;16.70;97.80;;;;;;5113102;28;20044;-67
2021/08/01 07:57:05;;;;;;;9.10;8.10;;;16.70;97.90;;;;;;5113102;28;20182;-67
2021/08/01 07:59:31;;;;;;;10.10;8.87;;;16.70;97.80;;;;;;5113456;28;20047;-67
2021/08/01 08:01:56;;;;;;;10.53;9.37;;;16.70;97.90;;;;;;5112290;28;20052;-67
2021/08/01 08:04:22;;;;;;;10.53;8.40;;;16.70;97.90;;;;;;5112284;28;20048;-66
2021/08/01 08:06:48;;;;;;;10.07;8.43;;;16.70;97.80;;;;;;5112785;28;20043;-66
2021/08/01 08:09:14;;;;;;;8.97;8.07;;;16.70;97.70;;;;;;5112484;28;20048;-66
2021/08/01 08:11:40;;;;;;;10.50;8.30;;;16.70;97.70;;;;;;5113268;28;20051;-67
2021/08/01 08:14:08;;;;;;;9.73;8.73;;;16.70;97.80;;;;;;5113010;28;20089;-66
2021/08/01 08:16:34;;;;;;;10.63;9.53;;;16.70;97.80;;;;;;5112538;28;20043;-66
2021/08/01 08:19:00;;;;;;;11.40;10.23;;;16.70;97.70;;;;;;5112645;28;20496;-66
2021/08/01 08:21:26;;;;;;;10.87;9.77;;;16.80;97.90;;;;;;5112424;28;20058;-67
2021/08/01 08:23:53;;;;;;;11.17;9.60;;;16.80;98.00;;;;;;5112305;28;20075;-66
2021/08/01 08:26:18;;;;;;;10.90;9.80;;;16.90;98.00;;;;;;5112225;28;20047;-66
2021/08/01 08:28:44;;;;;;;10.50;9.13;;;16.90;97.90;;;;;;5111799;28;20048;-66
2021/08/01 08:31:09;;;;;;;11.23;8.40;;;16.90;97.80;;;;;;5112181;28;20048;-66
2021/08/01 08:33:35;;;;;;;9.50;8.33;;;16.90;97.70;;;;;;5112127;28;20163;-66
2021/08/01 08:36:01;;;;;;;10.20;7.97;;;16.90;97.80;;;;;;5111484;28;20134;-66
2021/08/01 08:38:26;;;;;;;7.83;7.03;;;16.90;97.80;;;;;;5113093;28;20488;-67
2021/08/01 08:40:52;;;;;;;6.87;6.17;;;17.00;97.70;;;;;;5113010;28;20095;-66
2021/08/01 08:43:18;;;;;;;8.10;7.30;;;17.00;97.60;;;;;;5111919;28;20560;-66
2021/08/01 08:45:48;;;;;;;9.30;8.40;;;17.00;97.40;;;;;;5112350;28;20411;-66
2021/08/01 08:48:15;;;;;;;8.30;7.50;;;17.00;97.40;;;;;;5111626;28;20053;-66
2021/08/01 08:50:41;;;;;;;8.00;6.73;;;17.10;97.40;;;;;;5111259;28;20052;-66
2021/08/01 08:53:07;;;;;;;7.40;6.70;;;17.00;97.40;;;;;;5112543;28;20071;-66
2021/08/01 08:55:34;;;;;;;6.80;5.93;;;17.10;97.50;;;;;;5113263;28;20147;-66
2021/08/01 08:58:05;;;;;;;6.80;6.20;;;17.20;97.20;;;;;;5111773;28;20112;-66
2021/08/01 09:00:32;;;;;;;7.07;6.38;;;17.20;97.30;;;;;;5112787;28;20118;-66
2021/08/01 09:02:58;;;;;;;8.17;6.90;;;17.20;97.50;;;;;;5112630;28;20051;-66
2021/08/01 09:05:24;;;;;;;8.20;6.73;;;17.20;97.50;;;;;;5111440;28;20179;-66
2021/08/01 09:07:49;;;;;;;7.17;6.47;;;17.20;97.50;;;;;;5112874;28;20048;-66
2021/08/01 09:10:15;;;;;;;7.90;7.10;;;17.20;97.40;;;;;;5112581;28;20385;-66
2021/08/01 09:12:43;;;;;;;7.70;6.97;;;17.10;97.40;;;;;;5112130;28;20104;-67
2021/08/01 09:15:17;;;;;;;7.37;6.67;;;17.10;97.50;;;;;;5113795;28;20075;-66
2021/08/01 09:17:43;;;;;;;8.77;6.30;;;17.10;98.00;;;;;;5116301;28;20438;-66
2021/08/01 09:20:17;;;;;;;7.03;6.17;;;17.00;97.50;;;;;;5116667;28;20123;-66
2021/08/01 09:23:07;;;;;;;5.37;4.80;;;16.90;97.50;;;;;;5116818;28;20100;-66
2021/08/01 09:25:44;;;;;;;6.33;5.57;;;16.90;97.60;;;;;;5116001;28;20079;-66
2021/08/01 09:28:17;;;;;;;4.87;4.30;;;16.90;97.60;;;;;;5116629;28;20058;-66
2021/08/01 09:30:52;;;;;;;5.73;4.20;;;16.80;97.50;;;;;;5116543;28;20553;-66
2021/08/01 09:33:35;;;;;;;5.47;4.60;;;16.70;97.50;;;;;;5115765;28;20054;-66
2021/08/01 09:36:21;;;;;;;4.33;3.87;;;16.70;97.50;;;;;;5116116;28;20479;-66
2021/08/01 09:39:04;;;;;;;3.73;3.40;;;16.70;97.50;;;;;;5115765;28;20047;-66
2021/08/01 09:41:32;;;;;;;4.37;2.73;;;16.70;97.50;;;;;;5115593;28;20165;-66
2021/08/01 09:44:02;;;;;;;3.07;2.77;;;16.80;97.60;;;;;;5116227;28;20107;-66
2021/08/01 09:46:39;;;;;;;1.70;1.40;;;16.90;97.40;;;;;;5115106;28;20376;-67
2021/08/01 09:49:12;;;;;;;2.23;1.50;;;17.00;97.10;;;;;;5116100;28;20047;-67
2021/08/01 09:51:42;;;;;;;1.60;1.37;;;17.00;96.90;;;;;;5116425;28;20394;-66
2021/08/01 09:54:10;;;;;;;2.90;1.33;;;17.10;96.70;;;;;;5114763;28;20040;-67
2021/08/01 09:56:55;;;;;;;2.37;1.30;;;17.10;96.60;;;;;;5116135;28;20047;-66
2021/08/01 09:59:23;;;;;;;2.30;1.47;;;17.20;96.40;;;;;;5115658;28;20480;-67
2021/08/01 10:01:51;;;;;;;1.63;1.37;;;17.20;96.10;;;;;;5115329;28;20055;-67
2021/08/01 10:04:24;;;;;;;1.90;1.27;;;17.20;96.10;;;;;;5115596;28;20052;-66
2021/08/01 10:07:03;;;;;;;2.53;1.50;;;17.20;96.00;;;;;;5116037;28;20043;-67
2021/08/01 10:09:29;;;;;;;2.00;1.67;;;17.30;96.10;;;;;;5115751;28;20051;-66
2021/08/01 10:11:55;;;;;;;3.73;1.80;;;17.30;96.00;;;;;;5115255;28;20063;-66
2021/08/01 10:14:22;;;;;;;2.13;0.90;;;17.30;95.80;;;;;;5114784;28;20403;-67
2021/08/01 10:16:48;;;;;;;1.90;0.80;;;17.20;95.80;;;;;;5115855;28;20134;-66
2021/08/01 10:19:14;;;;;;;0.97;0.50;;;17.10;95.70;;;;;;5115337;28;20134;-66
2021/08/01 10:21:43;;;;;;;0.60;0.60;;;17.00;95.90;;;;;;5114626;28;20130;-67
2021/08/01 10:24:14;;;;;;;2.67;0.90;;;16.90;96.20;;;;;;5114185;28;20123;-67
2021/08/01 10:26:45;;;;;;;2.28;0.68;;;17.00;96.30;;;;;;5114487;28;20046;-66
2021/08/01 10:29:12;;;;;;;1.20;0.82;;;17.10;96.20;;;;;;5114189;28;20052;-66
2021/08/01 10:31:48;;;;;;;2.53;1.27;;;17.20;96.10;;;;;;5115264;28;20151;-66
2021/08/01 10:34:15;;;;;;;2.57;1.00;;;17.40;96.00;;;;;;5114964;28;20044;-66
2021/08/01 10:36:48;;;;;;;4.63;1.47;;;17.50;95.90;;;;;;5114366;28;20048;-66
2021/08/01 10:39:17;;;;;;;2.63;1.27;;;17.80;95.40;;;;;;5115223;28;20075;-66
2021/08/01 10:41:43;;;;;;;2.47;1.20;;;17.80;94.70;;;;;;5115278;28;20044;-66
2021/08/01 10:44:11;;;;;;;2.30;1.30;;;17.90;94.80;;;;;;5114300;28;20052;-66
2021/08/01 10:46:38;;;;;;;3.17;1.40;;;18.10;94.70;;;;;;5115051;28;20043;-65
2021/08/01 10:49:05;;;;;;;3.10;1.40;;;18.20;94.10;;;;;;5114088;28;20632;-65
2021/08/01 10:51:32;;;;;;;2.63;1.37;;;18.40;93.60;;;;;;5114754;28;20052;-65
2021/08/01 10:54:18;;;;;;;2.37;1.37;;;18.60;93.20;;;;;;5114939;28;20054;-65
2021/08/01 10:56:44;;;;;;;1.60;1.00;;;18.90;92.90;;;;;;5114019;28;20043;-65
2021/08/01 10:59:47;;;;;;;2.23;1.03;;;19.10;92.10;;;;;;5114245;28;20176;-66
2021/08/01 11:02:18;;;;;;;2.03;1.20;;;19.20;91.40;;;;;;5114293;28;20104;-65
2021/08/01 11:04:46;;;;;;;3.07;1.00;;;19.20;91.40;;;;;;5113860;28;20052;-65
2021/08/01 11:07:27;;;;;;;1.67;1.00;;;19.00;91.40;;;;;;5114627;28;20071;-67
2021/08/01 11:10:07;;;;;;;1.60;0.93;;;19.00;91.40;;;;;;5114632;28;20050;-65
2021/08/01 11:12:35;;;;;;;2.58;0.82;;;18.90;91.50;;;;;;5114074;28;20075;-66
2021/08/01 11:15:03;;;;;;;1.70;0.97;;;18.90;91.50;;;;;;5113884;28;20105;-65
2021/08/01 11:17:46;;;;;;;1.13;0.80;;;19.00;91.60;;;;;;5113644;28;20065;-66
2021/08/01 11:20:23;;;;;;;1.97;0.70;;;19.30;90.90;;;;;;5114300;28;20054;-66
2021/08/01 11:22:49;;;;;;;2.17;0.60;;;19.40;90.10;;;;;;5114643;28;20052;-66
2021/08/01 11:25:32;;;;;;;0.60;0.60;;;19.40;89.70;;;;;;5113430;28;20047;-67
2021/08/01 11:28:10;;;;;;;1.23;0.57;;;19.20;90.00;;;;;;5114117;28;20048;-67
2021/08/01 11:30:53;;;;;;;1.07;0.63;;;19.10;90.00;;;;;;5114111;28;20472;-67
2021/08/01 11:33:32;;;;;;;1.00;0.80;;;18.90;90.20;;;;;;5112833;28;20052;-67
2021/08/01 11:36:10;;;;;;;1.80;0.60;;;18.90;90.40;;;;;;5113606;28;20050;-66
2021/08/01 11:38:56;;;;;;;2.83;1.00;;;18.80;90.40;;;;;;5110106;28;20039;-66
2021/08/01 11:41:33;;;;;;;1.97;0.90;;;18.90;90.50;;;;;;5096299;28;20043;-67
2021/08/01 11:44:04;;;;;;;1.73;0.80;;;19.00;90.50;;;;;;5112754;28;20107;-68
2021/08/01 11:46:59;;;;;;;2.05;0.60;;;19.30;90.40;;;;;;5113077;28;20141;-66
2021/08/01 11:49:24;;;;;;;1.23;0.80;;;19.50;89.70;;;;;;5113630;28;20055;-68
2021/08/01 11:51:52;;;;;;;2.33;0.90;;;19.80;88.00;;;;;;5113891;28;20093;-66
2021/08/01 11:54:18;;;;;;;3.13;0.90;;;20.00;87.30;;;;;;5112748;28;20040;-66
2021/08/01 11:56:44;;;;;;;4.07;1.00;;;20.00;85.70;;;;;;5113531;28;20104;-68
2021/08/01 11:59:14;;;;;;;5.20;1.20;;;20.00;84.20;;;;;;5112961;28;20050;-65
2021/08/01 12:01:41;;;;;;;4.27;0.97;;;20.00;84.10;;;;;;5112619;28;20050;-66
2021/08/01 12:04:08;;;;;;;2.33;1.00;;;20.10;84.30;;;;;;5112927;28;20536;-67
2021/08/01 12:06:35;;;;;;;2.47;1.23;;;20.00;83.20;;;;;;5112925;28;20048;-67
2021/08/01 12:09:30;;;;;;;5.40;1.20;;;19.90;83.00;;;;;;5113444;28;20108;-67
2021/08/01 12:12:00;;;;;;;2.97;1.50;;;19.60;82.90;;;;;;5113457;28;20055;-67
2021/08/01 12:14:28;;;;;;;2.42;1.35;;;19.40;83.90;;;;;;5112609;28;20104;-66
2021/08/01 12:17:08;;;;;;;3.53;1.30;;;19.20;83.90;;;;;;5113554;28;20104;-67
2021/08/01 12:20:02;;;;;;;3.57;1.23;;;18.90;85.30;;;;;;5113447;28;20123;-67
2021/08/01 12:22:27;;;;;;;3.00;1.47;;;18.70;86.30;;;;;;5109327;28;20048;-66
2021/08/01 12:24:57;;;;;;;3.60;1.40;;;18.60;87.00;;;;;;5112875;28;20059;-69
2021/08/01 12:27:31;;;;;;;3.67;1.70;;;18.50;87.00;;;;;;5113462;28;20053;-67
2021/08/01 12:30:19;;;;;;;3.07;1.50;;;18.50;87.60;;;;;;5112021;28;20055;-68
2021/08/01 12:32:50;;;;;;;5.30;1.27;;;18.40;87.70;;;;;;5111292;28;20491;-67
2021/08/01 12:35:17;;;;;;;2.33;1.40;;;18.40;87.60;;;;;;5108657;28;20051;-67
2021/08/01 12:37:43;;;;;;;5.30;1.60;;;18.40;86.90;;;;;;5112659;28;20114;-67
2021/08/01 12:40:14;;;;;;;2.40;1.20;;;18.50;86.30;;;;;;5111857;28;20069;-66
2021/08/01 12:43:08;;;;;;;3.70;1.40;;;18.50;86.00;;;;;;5111674;27;20549;-67
2021/08/01 12:45:39;;;;;;;3.03;1.20;;;18.70;85.50;;;;;;5112979;28;20463;-67